Cole Spur, Arkansas
Current Conditions -  °F | °C
As of 8:21 AM on Sunday 21 Dec 2014 (Local Time) from KPBF Reporting Station
Haze Haze  
Wind Chill: 36°   Ceiling: Unl
Heat Index: 36°   Visibility: 1.7mi
Dew Point: 34°   Wind: 0mph
Humidity: 93%   Direction: NA
Pressure: 30.2"   Gusts: NA
Location:  34.0297°N, 91.5376°W
Report Text: KPBF 211421Z AUTO 00000KT 1 3/4SM BR FEW080 02/01 A3020 RMK AO2 T00220011
Loading
Personal Weather Stations






























Interactive Weather Map New forecast layout! Learn more

10-Day Weather Forecast

Advertisements
Track Severe Weather on mobile